Columbus Grove, Ohio
Current Conditions -  °F | °C
As of 6:53 AM on Friday 24 Oct 2014 (Local Time) from KAOH Reporting Station
Haze Haze  
Wind Chill: 38°   Ceiling: Unl
Heat Index: 42°   Visibility: 5mi
Dew Point: 38°   Wind: 7mph
Humidity: 85%   Direction: 160°SSE
Pressure: 30.09"   Gusts: NA
Location:  40.92°N, 84.06°W
Report Text: KAOH 241053Z AUTO 16006KT 5SM BR CLR 06/03 A3009 RMK AO2 SLP195 T00560033
Loading
Personal Weather Stations






























Interactive Weather Map
Tropical Storm Tracking
New forecast layout! Learn more

10-Day Weather Forecast

Advertisements
Track Severe Weather on mobile